createdAt,value
2018-09-02T00:00:55.208Z,14.493103
2018-09-02T00:02:11.049Z,14.402466
2018-09-02T00:03:27.089Z,14.483032
2018-09-02T00:04:43.008Z,14.563599
2018-09-02T00:05:59.050Z,14.58374
2018-09-02T00:07:15.186Z,14.613953
2018-09-02T00:08:31.230Z,14.563599
2018-09-02T00:09:47.142Z,14.593811
2018-09-02T00:11:03.040Z,14.483032
2018-09-02T00:12:18.946Z,14.45282
2018-09-02T00:13:34.970Z,14.442749
2018-09-02T00:14:50.895Z,14.45282
2018-09-02T00:16:06.879Z,14.563599
2018-09-02T00:17:22.853Z,14.613953
2018-09-02T00:18:38.767Z,14.593811
2018-09-02T00:19:54.794Z,14.533386
2018-09-02T00:21:10.728Z,14.58374
2018-09-02T00:22:26.647Z,14.553528
2018-09-02T00:23:42.539Z,14.58374
2018-09-02T00:24:58.475Z,14.624023
2018-09-02T00:26:14.450Z,14.493103
2018-09-02T00:27:30.496Z,14.45282
2018-09-02T00:30:27.395Z,14.624023
2018-09-02T00:31:43.376Z,14.533386
2018-09-02T00:32:59.417Z,14.533386
2018-09-02T00:34:15.306Z,14.563599
2018-09-02T00:35:31.236Z,14.483032
2018-09-02T00:36:47.283Z,14.493103
2018-09-02T00:38:03.282Z,14.563599
2018-09-02T00:39:19.142Z,14.513245
2018-09-02T00:40:35.226Z,14.553528
2018-09-02T00:41:51.142Z,14.58374
2018-09-02T00:43:07.070Z,14.58374
2018-09-02T00:44:23.089Z,14.533386
2018-09-02T00:45:39.033Z,14.442749
2018-09-02T00:46:55.011Z,14.45282
2018-09-02T00:48:11.039Z,14.493103
2018-09-02T00:49:26.972Z,14.45282
2018-09-02T00:50:43.007Z,14.493103
2018-09-02T00:51:58.988Z,14.45282
2018-09-02T00:53:14.929Z,14.45282
2018-09-02T00:54:30.831Z,14.432678
2018-09-02T00:55:46.735Z,14.513245
2018-09-02T00:57:02.684Z,14.553528
2018-09-02T00:58:18.640Z,14.58374
2018-09-02T00:59:34.657Z,14.45282
2018-09-02T01:00:50.607Z,14.372253
2018-09-02T01:02:06.632Z,14.382324
2018-09-02T01:03:22.809Z,14.412537
2018-09-02T01:06:19.447Z,14.432678
2018-09-02T01:07:35.464Z,14.45282
2018-09-02T01:08:51.463Z,14.45282
2018-09-02T01:10:07.360Z,14.483032
2018-09-02T01:11:23.262Z,14.593811
2018-09-02T01:14:20.010Z,14.553528
2018-09-02T01:15:35.968Z,14.483032
2018-09-02T01:16:51.891Z,14.58374
2018-09-02T01:18:07.854Z,14.533386
2018-09-02T01:19:23.899Z,14.563599
2018-09-02T01:20:39.842Z,14.523315
2018-09-02T01:21:55.866Z,14.45282
2018-09-02T01:23:11.919Z,14.432678
2018-09-02T01:24:27.876Z,14.432678
2018-09-02T01:25:43.841Z,14.533386
2018-09-02T01:26:59.764Z,14.523315
2018-09-02T01:28:15.734Z,14.513245
2018-09-02T01:29:31.709Z,14.523315
2018-09-02T01:30:47.602Z,14.513245
2018-09-02T01:32:03.523Z,14.553528
2018-09-02T01:33:19.553Z,14.483032
2018-09-02T01:34:35.478Z,14.412537
2018-09-02T01:35:51.379Z,14.523315
2018-09-02T01:37:07.294Z,14.553528
2018-09-02T01:38:23.236Z,14.533386
2018-09-02T01:39:39.153Z,14.45282
2018-09-02T01:40:55.159Z,14.45282
2018-09-02T01:42:11.123Z,14.402466
2018-09-02T01:43:27.035Z,14.402466
2018-09-02T01:44:43.074Z,14.442749
2018-09-02T01:45:59.010Z,14.533386
2018-09-02T01:47:14.894Z,14.513245
2018-09-02T01:48:30.789Z,14.45282
2018-09-02T01:49:46.726Z,14.442749
2018-09-02T01:51:02.695Z,14.483032
2018-09-02T01:52:18.591Z,14.513245
2018-09-02T01:53:34.663Z,14.493103
2018-09-02T01:54:50.615Z,14.412537
2018-09-02T01:56:06.511Z,14.412537
2018-09-02T01:57:22.468Z,14.412537
2018-09-02T01:58:38.501Z,14.412537
2018-09-02T01:59:54.392Z,14.442749
2018-09-02T02:01:10.272Z,14.513245
2018-09-02T02:02:26.192Z,14.483032
2018-09-02T02:03:42.141Z,14.442749
2018-09-02T02:04:58.028Z,14.493103
2018-09-02T02:06:14.060Z,14.483032
2018-09-02T02:07:29.963Z,14.483032
2018-09-02T02:08:45.947Z,14.493103
2018-09-02T02:10:01.954Z,14.432678
2018-09-02T02:11:17.882Z,14.483032
2018-09-02T02:12:33.845Z,14.45282
2018-09-02T02:13:49.814Z,14.483032
2018-09-02T02:15:05.903Z,14.45282
2018-09-02T02:16:21.905Z,14.402466
2018-09-02T02:17:37.817Z,14.412537
2018-09-02T02:18:53.708Z,14.442749
2018-09-02T02:20:09.602Z,14.382324
2018-09-02T02:21:25.521Z,14.221191
2018-09-02T02:22:41.411Z,14.221191
2018-09-02T02:23:57.293Z,14.311829
2018-09-02T02:25:13.296Z,14.190979
2018-09-02T02:26:29.192Z,14.180908
2018-09-02T02:27:45.154Z,14.311829
2018-09-02T02:29:01.153Z,14.342041
2018-09-02T02:30:17.180Z,14.412537
2018-09-02T02:31:33.183Z,14.442749
2018-09-02T02:32:49.068Z,14.412537
2018-09-02T02:34:04.962Z,14.442749
2018-09-02T02:35:20.944Z,14.45282
2018-09-02T02:36:36.869Z,14.483032
2018-09-02T02:37:52.825Z,14.483032
2018-09-02T02:39:08.719Z,14.382324
2018-09-02T02:40:24.729Z,14.493103
2018-09-02T02:41:40.712Z,14.442749
2018-09-02T02:42:56.625Z,14.523315
2018-09-02T02:44:12.644Z,14.412537
2018-09-02T02:45:28.560Z,14.251404
2018-09-02T02:46:44.477Z,14.342041
2018-09-02T02:48:00.553Z,14.442749
2018-09-02T02:49:16.490Z,14.432678
2018-09-02T02:50:32.427Z,14.432678
2018-09-02T02:51:48.332Z,14.402466
2018-09-02T02:53:04.251Z,14.432678
2018-09-02T02:54:20.201Z,14.442749
2018-09-02T02:55:36.105Z,14.483032
2018-09-02T02:56:52.078Z,14.483032
2018-09-02T02:58:08.330Z,14.58374
2018-09-02T02:59:24.306Z,14.58374
2018-09-02T03:00:40.231Z,14.493103
2018-09-02T03:01:56.151Z,14.553528
2018-09-02T03:03:12.089Z,14.523315
2018-09-02T03:04:28.097Z,14.402466
2018-09-02T03:05:43.982Z,14.402466
2018-09-02T03:06:59.981Z,14.432678
2018-09-02T03:08:15.928Z,14.402466
2018-09-02T03:09:31.901Z,14.523315
2018-09-02T03:10:47.915Z,14.483032
2018-09-02T03:12:03.806Z,14.493103
2018-09-02T03:13:19.854Z,14.483032
2018-09-02T03:14:35.780Z,14.402466
2018-09-02T03:15:51.710Z,14.372253
2018-09-02T03:17:07.589Z,14.432678
2018-09-02T03:18:23.472Z,14.493103
2018-09-02T03:19:39.488Z,14.533386
2018-09-02T03:20:55.372Z,14.513245
2018-09-02T03:22:11.278Z,14.412537
2018-09-02T03:23:27.258Z,14.432678
2018-09-02T03:24:43.201Z,14.342041
2018-09-02T03:25:59.344Z,14.281616
2018-09-02T03:27:15.246Z,14.362183
2018-09-02T03:28:31.208Z,14.442749
2018-09-02T03:29:47.217Z,14.45282
2018-09-02T03:31:03.114Z,14.483032
2018-09-02T03:32:19.042Z,14.342041
2018-09-02T03:33:35.011Z,14.251404
2018-09-02T03:34:50.955Z,14.20105
2018-09-02T03:36:07.019Z,14.221191
2018-09-02T03:37:22.907Z,14.372253
2018-09-02T03:38:38.959Z,14.412537
2018-09-02T03:39:55.027Z,14.45282
2018-09-02T03:41:11.047Z,14.45282
2018-09-02T03:42:26.948Z,14.432678
2018-09-02T03:43:42.947Z,14.412537
2018-09-02T03:44:58.866Z,14.442749
2018-09-02T03:46:14.747Z,14.513245
2018-09-02T03:47:30.653Z,14.483032
2018-09-02T03:48:46.595Z,14.442749
2018-09-02T03:50:02.711Z,14.382324
2018-09-02T03:51:18.606Z,14.281616
2018-09-02T03:52:34.501Z,14.261475
2018-09-02T03:53:50.389Z,14.33197
2018-09-02T03:55:06.418Z,14.362183
2018-09-02T03:56:22.318Z,14.402466
2018-09-02T03:57:38.297Z,14.412537
2018-09-02T03:58:54.341Z,14.442749
2018-09-02T04:00:10.247Z,14.382324
2018-09-02T04:01:26.203Z,14.372253
2018-09-02T04:02:42.230Z,14.412537
2018-09-02T04:03:58.127Z,14.483032
2018-09-02T04:05:14.022Z,14.533386
2018-09-02T04:06:29.929Z,14.563599
2018-09-02T04:07:45.966Z,14.563599
2018-09-02T04:09:01.876Z,14.563599
2018-09-02T04:10:17.873Z,14.523315
2018-09-02T04:11:33.959Z,14.432678
2018-09-02T04:12:49.903Z,14.513245
2018-09-02T04:14:05.941Z,14.412537
2018-09-02T04:15:21.884Z,14.45282
2018-09-02T04:16:37.755Z,14.493103
2018-09-02T04:17:54.101Z,14.513245
2018-09-02T04:19:10.009Z,14.533386
2018-09-02T04:20:25.949Z,14.58374
2018-09-02T04:21:41.861Z,14.523315
2018-09-02T04:22:57.798Z,14.553528
2018-09-02T04:24:13.731Z,14.513245
2018-09-02T04:25:29.635Z,14.412537
2018-09-02T04:26:45.610Z,14.442749
2018-09-02T04:28:01.706Z,14.33197
2018-09-02T04:29:17.599Z,14.281616
2018-09-02T04:30:33.607Z,14.281616
2018-09-02T04:31:49.477Z,14.301758
2018-09-02T04:33:05.381Z,14.342041
2018-09-02T04:34:21.294Z,14.342041
2018-09-02T04:37:17.851Z,14.342041
2018-09-02T04:38:33.736Z,14.402466
2018-09-02T04:39:49.625Z,14.342041
2018-09-02T04:41:05.515Z,14.281616
2018-09-02T04:42:21.461Z,14.402466
2018-09-02T04:43:37.488Z,14.412537
2018-09-02T04:44:53.529Z,14.301758
2018-09-02T04:46:09.425Z,14.261475
2018-09-02T04:47:25.463Z,14.33197
2018-09-02T04:48:41.381Z,14.281616
2018-09-02T04:49:57.338Z,14.20105
2018-09-02T04:52:53.861Z,14.281616
2018-09-02T04:54:09.974Z,14.261475
2018-09-02T04:55:25.929Z,14.261475
2018-09-02T04:56:41.828Z,14.190979
2018-09-02T04:57:57.774Z,14.261475
2018-09-02T04:59:13.720Z,14.261475
2018-09-02T05:00:30.001Z,14.261475
2018-09-02T05:01:45.771Z,14.231262
2018-09-02T05:03:01.707Z,14.231262
2018-09-02T05:04:17.842Z,14.150696
2018-09-02T05:05:33.881Z,14.180908
2018-09-02T05:06:49.885Z,14.130554
2018-09-02T05:08:06.011Z,14.190979
2018-09-02T05:09:21.934Z,14.20105
2018-09-02T05:10:38.010Z,14.251404
2018-09-02T05:11:54.008Z,14.20105
2018-09-02T05:13:09.938Z,14.221191
2018-09-02T05:14:25.946Z,14.231262
2018-09-02T05:15:42.095Z,14.190979
2018-09-02T05:16:58.123Z,14.190979
2018-09-02T05:18:14.187Z,14.231262
2018-09-02T05:19:30.187Z,14.251404
2018-09-02T05:20:46.145Z,14.281616
2018-09-02T05:22:02.068Z,14.261475
2018-09-02T05:23:17.962Z,14.342041
2018-09-02T05:24:33.936Z,14.372253
2018-09-02T05:25:49.924Z,14.372253
2018-09-02T05:27:05.852Z,14.382324
2018-09-02T05:28:21.776Z,14.372253
2018-09-02T05:29:37.665Z,14.281616
2018-09-02T05:30:53.600Z,14.251404
2018-09-02T05:32:09.536Z,14.362183
2018-09-02T05:33:25.445Z,14.382324
2018-09-02T05:36:23.258Z,14.442749
2018-09-02T05:37:39.271Z,14.402466
2018-09-02T05:38:55.192Z,14.372253
2018-09-02T05:40:11.157Z,14.382324
2018-09-02T05:41:27.047Z,14.442749
2018-09-02T05:42:42.988Z,14.382324
2018-09-02T05:43:59.351Z,14.372253
2018-09-02T05:45:15.401Z,14.402466
2018-09-02T05:46:31.303Z,14.402466
2018-09-02T05:47:47.188Z,14.432678
2018-09-02T05:49:04.080Z,14.402466
2018-09-02T05:50:19.988Z,14.402466
2018-09-02T05:51:35.959Z,14.483032
2018-09-02T05:52:52.026Z,14.45282
2018-09-02T05:54:07.932Z,14.402466
2018-09-02T05:55:23.928Z,14.382324
2018-09-02T05:56:39.940Z,14.442749
2018-09-02T05:57:55.833Z,14.432678
2018-09-02T05:59:11.764Z,14.372253
2018-09-02T06:00:27.689Z,14.382324
2018-09-02T06:01:43.721Z,14.402466
2018-09-02T06:02:59.639Z,14.372253
2018-09-02T06:04:15.634Z,14.412537
2018-09-02T06:05:31.680Z,14.372253
2018-09-02T06:06:48.772Z,14.372253
2018-09-02T06:08:04.833Z,14.382324
2018-09-02T06:09:20.741Z,14.311829
2018-09-02T06:10:36.713Z,14.311829
2018-09-02T06:11:52.752Z,14.382324
2018-09-02T06:13:08.730Z,14.483032
2018-09-02T06:14:24.647Z,14.523315
2018-09-02T06:15:40.576Z,14.613953
2018-09-02T06:16:56.553Z,14.553528
2018-09-02T06:19:53.212Z,14.553528
2018-09-02T06:21:09.190Z,14.493103
2018-09-02T06:22:25.145Z,14.563599
2018-09-02T06:23:41.077Z,14.553528
2018-09-02T06:24:56.979Z,14.593811
2018-09-02T06:26:12.835Z,14.664307
2018-09-02T06:27:28.817Z,14.664307
2018-09-02T06:28:44.683Z,14.634094
2018-09-02T06:30:00.694Z,14.613953
2018-09-02T06:31:16.527Z,14.533386
2018-09-02T06:32:32.472Z,14.624023
2018-09-02T06:33:48.491Z,14.624023
2018-09-02T06:35:04.395Z,14.684448
2018-09-02T06:36:20.505Z,14.674377
2018-09-02T06:37:36.466Z,14.634094
2018-09-02T06:38:52.436Z,14.58374
2018-09-02T06:40:08.313Z,14.674377
2018-09-02T06:41:24.218Z,14.734802
2018-09-02T06:44:20.833Z,14.744873
2018-09-02T06:45:36.909Z,14.815369
2018-09-02T06:46:52.872Z,14.926147
2018-09-02T06:48:08.857Z,14.95636
2018-09-02T06:49:25.024Z,14.936218
2018-09-02T06:52:22.754Z,14.865723
2018-09-02T06:53:38.798Z,14.916077
2018-09-02T06:54:54.871Z,14.986572
2018-09-02T06:57:51.852Z,14.936218
2018-09-02T06:59:08.076Z,14.95636
2018-09-02T07:00:24.029Z,14.936218
2018-09-02T07:01:40.099Z,14.926147
2018-09-02T07:02:56.118Z,14.986572
2018-09-02T07:04:12.193Z,15.036926
2018-09-02T07:05:28.194Z,15.036926
2018-09-02T07:06:44.318Z,15.097351
2018-09-02T07:08:00.158Z,15.036926
2018-09-02T07:09:16.279Z,15.016785
2018-09-02T07:10:32.179Z,15.046997
2018-09-02T07:11:48.156Z,15.097351
2018-09-02T07:13:04.135Z,15.177917
2018-09-02T07:14:20.130Z,15.298767
2018-09-02T07:15:36.024Z,15.187988
2018-09-02T07:16:51.958Z,14.95636
2018-09-02T07:18:07.849Z,14.936218
2018-09-02T07:19:23.855Z,14.966431
2018-09-02T07:20:39.782Z,14.936218
2018-09-02T07:21:55.815Z,14.966431
2018-09-02T07:23:12.744Z,14.996643
2018-09-02T07:24:28.756Z,14.966431
2018-09-02T07:25:45.702Z,15.016785
2018-09-02T07:27:01.677Z,15.016785
2018-09-02T07:28:17.696Z,15.046997
2018-09-02T07:29:33.717Z,15.077209
2018-09-02T07:30:49.727Z,15.046997
2018-09-02T07:32:05.668Z,15.097351
2018-09-02T07:33:21.588Z,15.077209
2018-09-02T07:34:37.502Z,15.067139
2018-09-02T07:35:53.460Z,15.036926
2018-09-02T07:37:09.464Z,15.107422
2018-09-02T07:38:25.427Z,15.147705
2018-09-02T07:39:41.490Z,15.177917
2018-09-02T07:40:57.468Z,15.187988
2018-09-02T07:42:13.499Z,15.167847
2018-09-02T07:43:29.483Z,15.137634
2018-09-02T07:44:45.481Z,15.177917
2018-09-02T07:46:01.475Z,15.187988
2018-09-02T07:47:17.457Z,15.077209
2018-09-02T07:48:33.460Z,15.067139
2018-09-02T07:49:49.393Z,15.117493
2018-09-02T07:51:05.588Z,15.187988
2018-09-02T07:52:21.616Z,15.298767
2018-09-02T07:53:37.766Z,15.429688
2018-09-02T07:54:53.721Z,15.469971
2018-09-02T07:56:09.759Z,15.500183
2018-09-02T07:57:25.710Z,15.439758
2018-09-02T07:58:41.726Z,15.520325
2018-09-02T07:59:57.734Z,15.520325
2018-09-02T08:01:13.712Z,15.550537
2018-09-02T08:02:29.806Z,15.651245
2018-09-02T08:03:46.712Z,15.439758
2018-09-02T08:05:02.652Z,15.540466
2018-09-02T08:06:18.652Z,15.621033
2018-09-02T08:07:34.609Z,15.661316
2018-09-02T08:08:50.686Z,15.691528
2018-09-02T08:10:06.658Z,15.671387
2018-09-02T08:14:19.520Z,15.59082
2018-09-02T08:15:35.692Z,15.540466
2018-09-02T08:16:51.871Z,15.540466
2018-09-02T08:18:07.884Z,15.540466
2018-09-02T08:19:23.989Z,15.721741
2018-09-02T08:20:40.111Z,15.751953
2018-09-02T08:21:56.130Z,15.84259
2018-09-02T08:23:12.727Z,15.903015
2018-09-02T08:24:29.777Z,16.064148
2018-09-02T08:25:45.937Z,16.134644
2018-09-02T08:27:02.059Z,16.255493
2018-09-02T08:28:18.175Z,16.315918
2018-09-02T08:29:34.118Z,16.456909
2018-09-02T08:30:50.238Z,16.436768
2018-09-02T08:32:06.177Z,16.507263
2018-09-02T08:33:22.168Z,16.547546
2018-09-02T08:34:38.145Z,16.738892
2018-09-02T08:35:54.332Z,16.8396
2018-09-02T08:37:10.512Z,16.990662
2018-09-02T08:38:26.438Z,17.071228
2018-09-02T08:39:42.387Z,17.141724
2018-09-02T08:40:58.386Z,17.141724
2018-09-02T08:42:14.370Z,17.242432
2018-09-02T08:43:30.317Z,17.242432
2018-09-02T08:44:46.462Z,17.282715
2018-09-02T08:46:02.418Z,17.232361
2018-09-02T08:47:18.510Z,17.272644
2018-09-02T08:48:34.552Z,17.161865
2018-09-02T08:49:50.546Z,17.171936
2018-09-02T08:51:06.598Z,17.10144
2018-09-02T08:52:22.561Z,17.141724
2018-09-02T08:53:38.524Z,17.302856
2018-09-02T08:54:54.492Z,17.322998
2018-09-02T08:56:10.435Z,17.272644
2018-09-02T08:57:26.434Z,17.161865
2018-09-02T08:58:42.742Z,17.202148
2018-09-02T08:59:58.719Z,17.020874
2018-09-02T09:01:14.888Z,16.980591
2018-09-02T09:02:30.845Z,16.920166
2018-09-02T09:03:46.834Z,16.728821
2018-09-02T09:05:02.932Z,16.859741
2018-09-02T09:06:18.883Z,16.97052
2018-09-02T09:07:34.868Z,17.161865
2018-09-02T09:08:51.325Z,17.192078
2018-09-02T09:10:07.023Z,17.302856
2018-09-02T09:11:23.012Z,17.373352
2018-09-02T09:12:39.139Z,17.383423
2018-09-02T09:13:55.182Z,17.564697
2018-09-02T09:15:11.177Z,17.745972
2018-09-02T09:16:27.213Z,17.796326
2018-09-02T09:17:43.282Z,17.947388
2018-09-02T09:18:59.296Z,18.078308
2018-09-02T09:20:15.312Z,18.017883
2018-09-02T09:21:31.333Z,17.866821
2018-09-02T09:22:47.506Z,17.745972
2018-09-02T09:24:03.466Z,17.413635
2018-09-02T09:25:19.371Z,17.373352
2018-09-02T09:26:35.394Z,17.282715
2018-09-02T09:27:51.363Z,17.282715
2018-09-02T09:29:07.513Z,17.35321
2018-09-02T09:30:23.723Z,17.373352
2018-09-02T09:31:39.696Z,17.302856
2018-09-02T09:32:55.639Z,17.171936
2018-09-02T09:34:11.633Z,17.121582
2018-09-02T09:35:27.571Z,17.041016
2018-09-02T09:36:43.664Z,17.051086
2018-09-02T09:37:59.721Z,16.990662
2018-09-02T09:39:15.762Z,17.041016
2018-09-02T09:40:31.850Z,17.161865
2018-09-02T09:43:28.248Z,17.35321
2018-09-02T09:44:44.236Z,17.494202
2018-09-02T09:46:00.204Z,17.504272
2018-09-02T09:47:16.135Z,17.534485
2018-09-02T09:48:32.199Z,17.574768
2018-09-02T09:49:48.292Z,17.524414
2018-09-02T09:51:04.478Z,17.534485
2018-09-02T09:52:20.679Z,17.564697
2018-09-02T09:53:36.638Z,17.675476
2018-09-02T09:54:52.646Z,17.786255
2018-09-02T09:56:08.708Z,17.947388
2018-09-02T09:57:24.648Z,18.058167
2018-09-02T09:58:40.708Z,17.997742
2018-09-02T09:59:56.711Z,17.967529
2018-09-02T10:01:12.643Z,17.967529
2018-09-02T10:02:28.767Z,17.876892
2018-09-02T10:03:45.430Z,17.816467
2018-09-02T10:05:01.992Z,17.816467
2018-09-02T10:06:18.034Z,17.786255
2018-09-02T10:07:34.099Z,17.715759
2018-09-02T10:08:50.084Z,17.745972
2018-09-02T10:10:06.162Z,17.645264
2018-09-02T10:11:22.313Z,17.645264
2018-09-02T10:12:38.333Z,17.60498
2018-09-02T10:13:54.345Z,17.504272
2018-09-02T10:15:10.553Z,17.534485
2018-09-02T10:16:26.564Z,17.534485
2018-09-02T10:17:42.605Z,17.494202
2018-09-02T10:18:58.689Z,17.463989
2018-09-02T10:20:14.749Z,17.47406
2018-09-02T10:21:30.804Z,17.463989
2018-09-02T10:22:46.905Z,17.413635
2018-09-02T10:24:02.906Z,17.312927
2018-09-02T10:25:18.941Z,17.22229
2018-09-02T10:26:35.055Z,17.10144
2018-09-02T10:27:50.996Z,17.020874
2018-09-02T10:29:07.073Z,16.980591
2018-09-02T10:30:23.211Z,16.950378
2018-09-02T10:31:39.166Z,16.990662
2018-09-02T10:32:55.206Z,17.020874
2018-09-02T10:34:11.346Z,17.071228
2018-09-02T10:35:27.352Z,17.071228
2018-09-02T10:36:43.394Z,17.131653
2018-09-02T10:37:59.334Z,17.131653
2018-09-02T10:39:15.471Z,17.171936
2018-09-02T10:40:31.474Z,17.242432
2018-09-02T10:41:47.420Z,17.272644
2018-09-02T10:43:03.535Z,17.322998
2018-09-02T10:44:19.604Z,17.443848
2018-09-02T10:45:35.665Z,17.47406
2018-09-02T10:46:51.613Z,17.544556
2018-09-02T10:48:07.676Z,17.745972
2018-09-02T10:49:23.662Z,17.796326
2018-09-02T10:50:39.722Z,17.685547
2018-09-02T10:51:55.892Z,17.675476
2018-09-02T10:53:11.835Z,17.564697
2018-09-02T10:54:27.983Z,17.60498
2018-09-02T10:55:43.917Z,17.705688
2018-09-02T10:56:59.845Z,17.685547
2018-09-02T10:58:15.877Z,17.715759
2018-09-02T10:59:31.959Z,17.72583
2018-09-02T11:00:47.963Z,17.685547
2018-09-02T11:02:04.058Z,17.776184
2018-09-02T11:03:19.985Z,17.85675
2018-09-02T11:04:36.218Z,18.027954
2018-09-02T11:05:53.148Z,18.078308
2018-09-02T11:07:09.456Z,18.118591
2018-09-02T11:08:25.583Z,18.179016
2018-09-02T11:09:41.591Z,18.239441
2018-09-02T11:10:57.710Z,18.330078
2018-09-02T11:12:13.698Z,18.420715
2018-09-02T11:13:29.750Z,18.521423
2018-09-02T11:16:26.686Z,18.833618
2018-09-02T11:17:42.656Z,18.974609
2018-09-02T11:18:58.686Z,19.065247
2018-09-02T11:20:14.744Z,19.186096
2018-09-02T11:21:30.707Z,19.387512
2018-09-02T11:22:46.663Z,19.347229
2018-09-02T11:24:02.721Z,19.317017
2018-09-02T11:25:18.803Z,19.367371
2018-09-02T11:26:34.908Z,19.337158
2018-09-02T11:27:51.050Z,19.417725
2018-09-02T11:29:07.151Z,19.598999
2018-09-02T11:30:23.186Z,19.478149
2018-09-02T11:31:39.348Z,19.407654
2018-09-02T11:32:56.369Z,19.367371
2018-09-02T11:34:12.740Z,19.639282
2018-09-02T11:35:28.687Z,19.820557
2018-09-02T11:36:44.892Z,19.961548
2018-09-02T11:39:41.303Z,20.193176
2018-09-02T11:40:57.467Z,20.36438
2018-09-02T11:42:13.495Z,20.183105
2018-09-02T11:43:29.417Z,20.24353
2018-09-02T11:44:45.484Z,20.374451
2018-09-02T11:46:01.407Z,20.223389
2018-09-02T11:47:17.496Z,20.082397
2018-09-02T11:48:33.428Z,19.790344
2018-09-02T11:49:49.526Z,19.629211
2018-09-02T11:51:06.414Z,19.468079
2018-09-02T11:52:22.524Z,19.367371
2018-09-02T11:53:38.561Z,19.186096
2018-09-02T11:54:54.600Z,19.075317
2018-09-02T11:56:10.760Z,18.98468
2018-09-02T11:57:26.858Z,18.964539
2018-09-02T11:58:42.799Z,18.914185
2018-09-02T11:59:58.891Z,18.883972
2018-09-02T12:01:14.915Z,18.702698
2018-09-02T12:02:31.005Z,18.742981
2018-09-02T12:03:47.157Z,18.73291
2018-09-02T12:05:03.124Z,18.763123
2018-09-02T12:12:38.338Z,18.299866
2018-09-02T12:13:54.370Z,18.330078
2018-09-02T12:15:10.328Z,18.259583
2018-09-02T12:16:26.384Z,18.269653
2018-09-02T12:17:42.396Z,18.309937
2018-09-02T12:20:39.165Z,18.118591
2018-09-02T12:21:55.179Z,18.108521
2018-09-02T12:23:11.178Z,18.148804
2018-09-02T12:26:07.837Z,18.108521
2018-09-02T12:27:23.858Z,18.027954
2018-09-02T12:30:20.351Z,18.078308
2018-09-02T12:31:36.538Z,18.209229
2018-09-02T12:32:52.423Z,18.269653
2018-09-02T12:34:08.470Z,18.078308
2018-09-02T12:35:24.409Z,18.088379
2018-09-02T12:36:40.438Z,18.078308
2018-09-02T12:37:56.505Z,18.027954
2018-09-02T12:39:12.496Z,18.027954
2018-09-02T12:40:28.549Z,17.9776
2018-09-02T12:41:44.531Z,17.9776
2018-09-02T12:43:00.611Z,17.876892
2018-09-02T12:44:16.701Z,17.85675
2018-09-02T12:45:32.679Z,17.756042
2018-09-02T12:46:49.867Z,17.776184
2018-09-02T12:48:06.602Z,17.72583
2018-09-02T12:49:22.529Z,17.745972
2018-09-02T12:50:38.702Z,17.72583
2018-09-02T12:51:54.676Z,17.776184
2018-09-02T12:53:11.273Z,17.756042
2018-09-02T12:54:27.461Z,17.705688
2018-09-02T12:55:43.684Z,17.645264
2018-09-02T12:57:00.321Z,17.60498
2018-09-02T12:58:16.328Z,17.625122
2018-09-02T12:59:32.403Z,17.655334
2018-09-02T13:00:49.306Z,17.675476
2018-09-02T13:02:05.597Z,17.59491
2018-09-02T13:03:21.636Z,17.494202
2018-09-02T13:04:37.803Z,17.393494
2018-09-02T13:05:54.019Z,17.383423
2018-09-02T13:07:10.044Z,17.443848
2018-09-02T13:08:26.245Z,17.443848
2018-09-02T13:09:42.330Z,17.443848
2018-09-02T13:10:59.200Z,17.463989
2018-09-02T13:12:17.372Z,17.534485
2018-09-02T13:13:34.174Z,17.534485
2018-09-02T13:14:50.184Z,17.504272
2018-09-02T13:16:06.345Z,17.47406
2018-09-02T13:17:22.440Z,17.534485
2018-09-02T13:18:38.411Z,17.534485
2018-09-02T13:19:54.484Z,17.47406
2018-09-02T13:21:10.489Z,17.463989
2018-09-02T13:24:07.367Z,17.423706
2018-09-02T13:25:23.315Z,17.463989
2018-09-02T13:26:39.331Z,17.47406
2018-09-02T13:27:55.371Z,17.504272
2018-09-02T13:29:11.542Z,17.524414
2018-09-02T13:30:27.539Z,17.383423
2018-09-02T13:31:43.606Z,17.35321
2018-09-02T13:32:59.819Z,17.383423
2018-09-02T13:34:16.113Z,17.443848
2018-09-02T13:35:32.076Z,17.383423
2018-09-02T13:36:48.128Z,17.383423
2018-09-02T13:38:04.364Z,17.393494
2018-09-02T13:39:20.434Z,17.413635
2018-09-02T13:43:32.934Z,17.494202
2018-09-02T13:44:49.413Z,17.423706
2018-09-02T13:46:05.488Z,17.413635
2018-09-02T13:47:21.417Z,17.423706
2018-09-02T13:48:37.457Z,17.423706
2018-09-02T13:49:53.547Z,17.413635
2018-09-02T13:51:09.640Z,17.35321
2018-09-02T13:54:07.236Z,17.34314
2018-09-02T13:55:23.264Z,17.232361
2018-09-02T13:56:39.348Z,17.282715
2018-09-02T13:57:55.436Z,17.34314
2018-09-02T13:59:11.572Z,17.322998
2018-09-02T14:00:27.645Z,17.34314
2018-09-02T14:01:43.804Z,17.373352
2018-09-02T14:03:00.344Z,17.322998
2018-09-02T14:04:16.415Z,17.34314
2018-09-02T14:05:32.421Z,17.322998
2018-09-02T14:06:48.402Z,17.35321
2018-09-02T14:08:04.698Z,17.34314
2018-09-02T14:11:01.467Z,17.373352
2018-09-02T14:12:17.427Z,17.393494
2018-09-02T14:13:33.415Z,17.413635
2018-09-02T14:14:49.420Z,17.383423
2018-09-02T14:16:05.407Z,17.383423
2018-09-02T14:17:21.502Z,17.413635
2018-09-02T14:18:37.638Z,17.34314
2018-09-02T14:19:53.810Z,17.302856
2018-09-02T14:21:09.888Z,17.35321
2018-09-02T14:22:26.070Z,17.34314
2018-09-02T14:23:42.086Z,17.302856
2018-09-02T14:24:58.078Z,17.312927
2018-09-02T14:26:14.106Z,17.35321
2018-09-02T14:27:30.147Z,17.312927
2018-09-02T14:28:46.195Z,17.312927
2018-09-02T14:30:02.451Z,17.34314
2018-09-02T14:31:18.425Z,17.34314
2018-09-02T14:34:16.253Z,17.373352
2018-09-02T14:35:32.231Z,17.47406
2018-09-02T14:36:48.251Z,17.534485
2018-09-02T14:38:04.322Z,17.59491
2018-09-02T14:39:20.511Z,17.675476
2018-09-02T14:40:36.501Z,17.72583
2018-09-02T14:41:52.672Z,17.685547
2018-09-02T14:43:08.843Z,17.60498
2018-09-02T14:44:24.939Z,17.564697
2018-09-02T14:45:40.979Z,17.60498
2018-09-02T14:46:57.240Z,17.59491
2018-09-02T14:48:13.308Z,17.574768
2018-09-02T14:49:29.366Z,17.534485
2018-09-02T14:50:45.388Z,17.504272
2018-09-02T14:52:01.437Z,17.524414
2018-09-02T14:53:17.475Z,17.544556
2018-09-02T14:54:33.463Z,17.60498
2018-09-02T14:55:49.535Z,17.625122
2018-09-02T14:57:05.643Z,17.524414
2018-09-02T14:58:21.640Z,17.443848
2018-09-02T14:59:37.658Z,17.423706
2018-09-02T15:00:53.737Z,17.393494
2018-09-02T15:02:09.679Z,17.35321
2018-09-02T15:03:25.625Z,17.35321
2018-09-02T15:04:41.585Z,17.47406
2018-09-02T15:05:57.679Z,17.443848
2018-09-02T15:07:13.758Z,17.47406
2018-09-02T15:08:29.880Z,17.47406
2018-09-02T15:09:46.201Z,17.35321
2018-09-02T15:11:02.307Z,17.34314
2018-09-02T15:12:18.322Z,17.393494
2018-09-02T15:13:34.273Z,17.463989
2018-09-02T15:14:50.269Z,17.524414
2018-09-02T15:16:06.331Z,17.504272
2018-09-02T15:17:22.444Z,17.47406